Time;durP1;ratioP1;P1;durP2;ratioP2;P2;SDS_P1;SDS_P2;PMS_P1;PMS_P2;Temp;Humidity;BMP_temperature;BMP_pressure;BME280_temperature;BME280_humidity;BME280_pressure;Samples;Min_cycle;Max_cycle;Signal;HPM_P1;HPM_P2
2023/03/10 00:00:13;;;;;;;142.73;134.98;;;12.20;99.90;;;;;;5247956;28;20082;-67
2023/03/10 00:02:49;;;;;;;155.35;146.82;;;12.10;99.90;;;;;;5248071;28;20020;-67
2023/03/10 00:05:19;;;;;;;133.93;126.65;;;12.10;99.90;;;;;;5248098;28;20028;-68
2023/03/10 00:07:50;;;;;;;138.48;130.85;;;12.10;99.90;;;;;;5247617;28;20037;-67
2023/03/10 00:10:21;;;;;;;141.20;133.35;;;12.20;99.90;;;;;;5247804;28;20068;-68
2023/03/10 00:12:52;;;;;;;147.32;139.23;;;12.30;99.90;;;;;;5247954;28;20415;-68
2023/03/10 00:15:23;;;;;;;132.52;125.32;;;12.10;99.90;;;;;;5247984;28;20065;-67
2023/03/10 00:17:54;;;;;;;147.25;138.63;;;12.10;99.90;;;;;;5248056;28;20021;-67
2023/03/10 00:20:25;;;;;;;140.48;132.45;;;12.10;99.90;;;;;;5247895;28;20032;-68
2023/03/10 00:22:56;;;;;;;143.05;135.15;;;12.20;99.90;;;;;;5247832;28;20055;-67
2023/03/10 00:25:27;;;;;;;134.13;126.55;;;12.30;99.90;;;;;;5247827;28;20024;-67
2023/03/10 00:27:58;;;;;;;139.55;131.88;;;12.30;99.90;;;;;;5247572;28;20055;-67
2023/03/10 00:30:29;;;;;;;134.50;127.22;;;12.30;99.90;;;;;;5258854;28;20036;-67
2023/03/10 00:33:01;;;;;;;146.30;138.35;;;12.40;99.90;;;;;;5247491;28;20552;-67
2023/03/10 00:35:31;;;;;;;150.68;142.43;;;12.30;99.90;;;;;;5247603;28;20025;-67
2023/03/10 00:38:02;;;;;;;136.50;129.10;;;12.50;99.90;;;;;;5247166;28;20032;-67
2023/03/10 00:40:33;;;;;;;139.18;131.40;;;12.50;99.90;;;;;;5247232;28;20440;-67
2023/03/10 00:43:04;;;;;;;133.40;126.00;;;12.60;99.90;;;;;;5247376;28;20020;-67
2023/03/10 00:45:35;;;;;;;134.25;126.78;;;12.50;99.90;;;;;;5247301;28;20377;-68
2023/03/10 00:48:06;;;;;;;137.13;129.32;;;12.70;99.90;;;;;;5247182;28;20107;-67
2023/03/10 00:50:37;;;;;;;136.15;128.38;;;12.70;99.90;;;;;;5247186;28;20033;-67
2023/03/10 00:53:08;;;;;;;142.40;134.50;;;12.70;99.90;;;;;;5247288;28;20506;-68
2023/03/10 00:55:38;;;;;;;143.68;135.75;;;12.80;99.90;;;;;;5247378;28;20040;-67
2023/03/10 00:58:10;;;;;;;139.95;132.18;;;12.70;99.90;;;;;;5247213;28;20381;-68
2023/03/10 01:00:43;;;;;;;152.02;143.38;;;12.70;99.90;;;;;;5247191;28;20612;-68
2023/03/10 01:03:13;;;;;;;151.70;143.50;;;12.80;99.90;;;;;;5247661;28;20032;-68
2023/03/10 01:05:44;;;;;;;149.38;141.30;;;12.60;99.90;;;;;;5254325;28;20384;-68
2023/03/10 01:08:16;;;;;;;156.25;147.20;;;12.50;99.90;;;;;;5256610;28;20040;-67
2023/03/10 01:10:47;;;;;;;142.10;134.00;;;12.60;99.90;;;;;;5268016;28;20149;-68
2023/03/10 01:13:18;;;;;;;138.55;130.50;;;12.70;99.90;;;;;;5259287;28;20109;-67
2023/03/10 01:15:49;;;;;;;138.23;130.52;;;12.70;99.90;;;;;;5246984;28;20041;-68
2023/03/10 01:18:21;;;;;;;142.88;135.07;;;12.70;99.90;;;;;;5246869;28;20028;-67
2023/03/10 01:20:52;;;;;;;158.07;149.25;;;12.60;99.90;;;;;;5246939;28;20437;-67
2023/03/10 01:23:24;;;;;;;151.73;143.38;;;12.70;99.90;;;;;;5245555;28;20028;-68
2023/03/10 01:25:55;;;;;;;168.93;159.68;;;12.70;99.90;;;;;;5246895;28;20021;-68
2023/03/10 01:28:26;;;;;;;171.00;161.55;;;12.60;99.90;;;;;;5246710;28;20036;-67
2023/03/10 01:30:57;;;;;;;164.55;155.38;;;12.70;99.90;;;;;;5246971;28;20362;-68
2023/03/10 01:33:27;;;;;;;164.85;155.77;;;12.70;99.90;;;;;;5247096;28;20572;-68
2023/03/10 01:35:58;;;;;;;155.93;147.43;;;12.70;99.90;;;;;;5247165;28;20036;-68
2023/03/10 01:38:29;;;;;;;161.00;152.13;;;12.70;99.90;;;;;;5246717;28;20477;-67
2023/03/10 01:41:00;;;;;;;155.80;147.38;;;12.60;99.90;;;;;;5246726;28;20023;-67
2023/03/10 01:43:40;;;;;;;160.82;151.95;;;12.60;99.90;;;;;;5246762;28;20475;-67
2023/03/10 01:46:50;;;;;;;142.32;134.32;;;12.70;99.90;;;;;;5246784;28;20039;-67
2023/03/10 01:49:36;;;;;;;137.60;130.00;;;12.70;99.90;;;;;;5241539;28;20518;-67
2023/03/10 01:52:07;;;;;;;134.60;127.22;;;12.50;99.90;;;;;;5249839;28;20359;-69
2023/03/10 01:54:54;;;;;;;139.23;131.52;;;12.50;99.90;;;;;;5250817;28;20131;-67
2023/03/10 01:57:35;;;;;;;138.65;130.93;;;12.60;99.90;;;;;;5250622;28;20060;-68
2023/03/10 02:00:13;;;;;;;140.85;132.88;;;12.60;99.90;;;;;;5250594;28;20086;-68
2023/03/10 02:03:08;;;;;;;130.80;123.47;;;12.50;99.90;;;;;;5250533;28;20518;-67
2023/03/10 02:05:44;;;;;;;130.57;123.28;;;12.60;99.90;;;;;;5250503;28;20089;-67
2023/03/10 02:08:17;;;;;;;138.40;130.80;;;12.50;99.90;;;;;;5250118;28;20057;-67
2023/03/10 02:10:49;;;;;;;124.30;117.43;;;12.60;99.90;;;;;;5250281;28;20032;-67
2023/03/10 02:13:20;;;;;;;133.55;126.35;;;12.50;99.90;;;;;;5250234;28;20028;-67
2023/03/10 02:15:51;;;;;;;146.65;138.52;;;12.60;99.90;;;;;;5250082;28;20083;-68
2023/03/10 02:18:22;;;;;;;114.95;108.20;;;12.50;99.90;;;;;;5250167;28;20060;-67
2023/03/10 02:21:02;;;;;;;124.82;117.45;;;12.60;99.90;;;;;;5250107;28;20029;-67
2023/03/10 02:23:45;;;;;;;;;;;12.50;99.90;;;;;;5250546;28;20056;-67
2023/03/10 02:26:31;;;;;;;128.90;121.85;;;12.50;99.90;;;;;;5250069;28;19951;-67
2023/03/10 02:29:07;;;;;;;126.03;119.07;;;12.40;99.90;;;;;;5248545;28;20491;-68
2023/03/10 02:31:38;;;;;;;120.88;114.15;;;12.40;99.90;;;;;;5249943;28;20021;-68
2023/03/10 02:34:10;;;;;;;133.10;125.90;;;12.30;99.90;;;;;;5249854;28;20033;-68
2023/03/10 02:36:41;;;;;;;120.13;113.35;;;12.30;99.90;;;;;;5249693;28;20027;-67
2023/03/10 02:39:12;;;;;;;137.13;129.50;;;12.10;99.90;;;;;;5248370;28;20037;-67
2023/03/10 02:41:44;;;;;;;124.18;117.20;;;12.10;99.90;;;;;;5249769;28;20569;-67
2023/03/10 02:44:19;;;;;;;125.80;118.75;;;12.10;99.90;;;;;;5249887;28;20060;-67
2023/03/10 02:46:50;;;;;;;112.65;105.95;;;12.10;99.90;;;;;;5249672;28;20024;-67
2023/03/10 02:49:23;;;;;;;116.28;109.65;;;11.90;99.90;;;;;;5249608;28;20048;-67
2023/03/10 02:51:56;;;;;;;116.85;110.03;;;11.90;99.90;;;;;;5249801;28;20036;-67
2023/03/10 02:54:27;;;;;;;112.53;106.15;;;12.10;99.90;;;;;;5252443;28;20021;-67
2023/03/10 02:56:58;;;;;;;108.05;101.95;;;11.90;99.90;;;;;;5257914;28;20435;-67
2023/03/10 02:59:28;;;;;;;109.88;103.93;;;11.90;99.90;;;;;;5248104;28;20047;-68
2023/03/10 03:01:59;;;;;;;108.75;102.55;;;11.90;99.90;;;;;;5249143;28;20024;-68
2023/03/10 03:04:30;;;;;;;104.00;98.03;;;11.90;99.90;;;;;;5249417;28;20060;-67
2023/03/10 03:07:01;;;;;;;119.70;112.75;;;11.80;99.90;;;;;;5249264;28;20019;-67
2023/03/10 03:09:32;;;;;;;112.32;105.93;;;11.80;99.90;;;;;;5249075;28;20404;-67
2023/03/10 03:12:03;;;;;;;109.45;103.13;;;11.60;99.90;;;;;;5249126;28;20032;-67
2023/03/10 03:14:34;;;;;;;104.10;98.15;;;11.60;99.90;;;;;;5249083;28;20032;-68
2023/03/10 03:17:05;;;;;;;108.05;101.95;;;11.70;99.90;;;;;;5249041;28;20464;-67
2023/03/10 03:19:36;;;;;;;109.63;103.45;;;11.70;99.90;;;;;;5248911;28;20036;-68
2023/03/10 03:22:07;;;;;;;103.40;97.53;;;11.70;99.90;;;;;;5248934;28;20028;-67
2023/03/10 03:24:38;;;;;;;101.18;95.63;;;11.70;99.90;;;;;;5248993;28;20082;-68
2023/03/10 03:27:08;;;;;;;96.80;91.05;;;11.60;99.90;;;;;;5247445;28;20040;-67
2023/03/10 03:29:39;;;;;;;93.40;87.75;;;11.60;99.90;;;;;;5248858;28;20484;-67
2023/03/10 03:32:10;;;;;;;94.75;89.28;;;11.50;99.90;;;;;;5248806;28;20024;-67
2023/03/10 03:34:41;;;;;;;101.35;95.00;;;11.50;99.90;;;;;;5248760;28;20039;-67
2023/03/10 03:37:12;;;;;;;100.30;94.40;;;11.40;99.90;;;;;;5255906;28;20134;-68
2023/03/10 03:39:42;;;;;;;97.55;91.93;;;11.40;99.90;;;;;;5252543;28;20040;-67
2023/03/10 03:42:13;;;;;;;95.43;89.68;;;11.50;99.90;;;;;;5248677;28;20029;-67
2023/03/10 03:44:44;;;;;;;96.72;90.88;;;11.40;99.90;;;;;;5248400;28;20487;-67
2023/03/10 03:47:15;;;;;;;91.25;85.95;;;11.30;99.90;;;;;;5248358;28;20021;-67
2023/03/10 03:49:46;;;;;;;90.45;85.25;;;11.40;99.90;;;;;;5248186;28;20028;-67
2023/03/10 03:52:18;;;;;;;86.15;80.45;;;11.30;99.90;;;;;;5248197;28;20027;-67
2023/03/10 03:54:49;;;;;;;91.10;85.60;;;11.40;99.90;;;;;;5248234;28;20028;-67
2023/03/10 03:57:20;;;;;;;91.18;85.50;;;11.30;99.90;;;;;;5248318;28;20029;-67
2023/03/10 03:59:51;;;;;;;84.78;79.47;;;11.40;99.90;;;;;;5248114;28;20027;-67
2023/03/10 04:02:22;;;;;;;86.50;81.50;;;11.40;99.90;;;;;;5248018;28;20103;-68
2023/03/10 04:04:53;;;;;;;91.07;85.35;;;11.40;99.90;;;;;;5248276;28;20103;-67
2023/03/10 04:07:24;;;;;;;87.68;82.03;;;11.40;99.90;;;;;;5247909;28;20516;-68
2023/03/10 04:09:55;;;;;;;94.47;88.78;;;11.40;99.90;;;;;;5248112;28;20159;-67
2023/03/10 04:12:28;;;;;;;97.25;91.45;;;11.40;99.90;;;;;;5248028;28;20087;-67
2023/03/10 04:14:59;;;;;;;93.57;88.20;;;11.40;99.90;;;;;;5247283;28;20031;-67
2023/03/10 04:17:30;;;;;;;97.85;92.20;;;11.30;99.90;;;;;;5246599;28;20025;-67
2023/03/10 04:20:01;;;;;;;92.72;86.93;;;11.50;99.90;;;;;;5247799;28;20032;-67
2023/03/10 04:22:32;;;;;;;94.25;88.40;;;11.40;99.90;;;;;;5247737;28;20437;-67
2023/03/10 04:25:04;;;;;;;93.93;88.13;;;11.40;99.90;;;;;;5247822;28;20392;-68
2023/03/10 04:27:35;;;;;;;96.07;90.43;;;11.50;99.90;;;;;;5247786;28;20586;-68
2023/03/10 04:30:07;;;;;;;101.40;95.35;;;11.40;99.90;;;;;;5247558;28;20116;-67
2023/03/10 04:32:38;;;;;;;91.97;86.50;;;11.40;99.90;;;;;;5255080;28;20047;-67
2023/03/10 04:35:12;;;;;;;101.05;94.68;;;11.40;99.90;;;;;;5251380;28;20020;-68
2023/03/10 04:37:43;;;;;;;104.18;97.60;;;11.40;99.90;;;;;;5247393;28;20075;-67
2023/03/10 04:40:14;;;;;;;96.43;90.55;;;11.40;99.90;;;;;;5247543;28;20372;-68
2023/03/10 04:42:45;;;;;;;101.03;94.53;;;11.40;99.90;;;;;;5247312;28;20039;-68
2023/03/10 04:45:16;;;;;;;97.13;91.03;;;11.40;99.90;;;;;;5247324;28;20021;-68
2023/03/10 04:47:47;;;;;;;101.05;94.68;;;11.30;99.90;;;;;;5247246;28;20766;-68
2023/03/10 04:50:18;;;;;;;95.45;90.00;;;11.30;99.90;;;;;;5247161;28;20174;-69
2023/03/10 04:52:49;;;;;;;93.22;87.50;;;11.40;99.90;;;;;;5247043;28;20107;-67
2023/03/10 04:55:20;;;;;;;91.05;85.70;;;11.30;99.90;;;;;;5247106;28;20543;-68
2023/03/10 04:57:51;;;;;;;104.90;98.70;;;11.40;99.90;;;;;;5246981;28;20032;-68
2023/03/10 05:00:24;;;;;;;87.85;82.53;;;11.40;99.90;;;;;;5247088;28;20085;-68
2023/03/10 05:02:55;;;;;;;95.53;89.68;;;11.30;99.90;;;;;;5247019;28;20032;-68
2023/03/10 05:05:25;;;;;;;95.57;90.18;;;11.30;99.90;;;;;;5246931;28;20346;-68
2023/03/10 05:07:56;;;;;;;92.13;86.40;;;11.40;99.90;;;;;;5246687;28;20687;-68
2023/03/10 05:10:27;;;;;;;90.25;85.00;;;11.50;99.90;;;;;;5246893;28;20507;-68
2023/03/10 05:12:58;;;;;;;88.85;83.53;;;11.50;99.90;;;;;;5246898;28;20028;-68
2023/03/10 05:15:32;;;;;;;102.68;96.10;;;11.50;99.90;;;;;;5246863;28;20508;-68
2023/03/10 05:18:03;;;;;;;88.80;83.28;;;11.60;99.90;;;;;;5246842;28;20384;-67
2023/03/10 05:20:35;;;;;;;94.53;88.65;;;11.60;99.90;;;;;;5246986;28;20024;-68
2023/03/10 05:23:05;;;;;;;95.70;89.38;;;11.60;99.90;;;;;;5247060;28;20032;-68
2023/03/10 05:25:39;;;;;;;97.70;91.55;;;11.70;99.90;;;;;;5249500;28;20020;-67
2023/03/10 05:28:10;;;;;;;88.07;82.80;;;11.70;99.90;;;;;;5249930;28;20468;-67
2023/03/10 05:30:41;;;;;;;90.15;84.70;;;11.70;99.90;;;;;;5251446;28;20021;-68
2023/03/10 05:33:11;;;;;;;89.75;84.22;;;11.90;99.90;;;;;;5249960;28;20361;-68
2023/03/10 05:35:42;;;;;;;98.88;93.07;;;11.90;99.90;;;;;;5251103;28;20035;-68
2023/03/10 05:38:13;;;;;;;93.60;87.82;;;12.00;99.90;;;;;;5250705;28;20068;-68
2023/03/10 05:40:44;;;;;;;94.40;88.75;;;11.90;99.90;;;;;;5250962;28;20380;-68
2023/03/10 05:43:15;;;;;;;87.22;81.60;;;11.90;99.90;;;;;;5250916;28;20024;-68
2023/03/10 05:45:54;;;;;;;90.18;84.53;;;12.00;99.90;;;;;;5250839;28;20114;-68
2023/03/10 05:48:26;;;;;;;91.82;85.97;;;12.00;99.90;;;;;;5250674;28;20499;-68
2023/03/10 05:51:08;;;;;;;94.57;88.93;;;12.10;99.90;;;;;;5250701;28;20043;-68
2023/03/10 05:53:40;;;;;;;97.50;91.38;;;12.10;99.90;;;;;;5250653;28;20090;-68
2023/03/10 05:56:16;;;;;;;97.72;91.65;;;12.10;99.90;;;;;;5250625;28;20510;-68
2023/03/10 05:58:49;;;;;;;97.00;91.00;;;12.30;99.90;;;;;;5250352;28;20017;-68
2023/03/10 06:01:20;;;;;;;100.40;94.40;;;12.30;99.90;;;;;;5250446;28;20024;-68
2023/03/10 06:03:51;;;;;;;92.38;86.65;;;12.50;99.90;;;;;;5250286;28;20048;-67
2023/03/10 06:06:22;;;;;;;104.25;97.70;;;12.40;99.90;;;;;;5250265;28;20047;-68
2023/03/10 06:08:54;;;;;;;102.90;96.82;;;12.40;99.90;;;;;;5249905;28;20099;-69
2023/03/10 06:11:25;;;;;;;98.20;92.28;;;12.40;99.90;;;;;;5250332;28;20033;-67
2023/03/10 06:13:56;;;;;;;92.05;86.55;;;12.60;99.90;;;;;;5250105;28;20020;-68
2023/03/10 06:16:27;;;;;;;104.57;97.90;;;12.60;99.90;;;;;;5248945;28;20374;-67
2023/03/10 06:18:57;;;;;;;101.47;95.25;;;12.60;99.90;;;;;;5250315;28;20519;-67
2023/03/10 06:21:28;;;;;;;106.32;99.53;;;12.70;99.90;;;;;;5259574;28;20032;-67
2023/03/10 06:23:59;;;;;;;104.10;97.68;;;12.70;99.90;;;;;;5269633;28;20089;-67
2023/03/10 06:26:30;;;;;;;103.95;97.57;;;12.80;99.90;;;;;;5270996;28;20031;-68
2023/03/10 06:29:01;;;;;;;102.25;95.75;;;12.90;99.90;;;;;;5270899;28;20381;-68
2023/03/10 06:31:32;;;;;;;93.78;88.25;;;13.00;99.90;;;;;;5270969;28;20193;-68
2023/03/10 06:34:03;;;;;;;93.57;87.68;;;13.00;99.90;;;;;;5270884;28;20032;-68
2023/03/10 06:36:36;;;;;;;141.15;131.32;;;13.20;99.90;;;;;;5270200;28;20026;-68
2023/03/10 06:39:07;;;;;;;99.57;93.57;;;13.30;99.90;;;;;;5271024;28;20085;-67
2023/03/10 06:41:38;;;;;;;105.68;99.40;;;13.40;99.90;;;;;;5271046;28;20031;-69
2023/03/10 06:44:08;;;;;;;105.78;99.43;;;13.40;99.90;;;;;;5270768;28;20024;-69
2023/03/10 06:46:39;;;;;;;104.22;97.75;;;13.50;99.90;;;;;;5270448;28;20064;-68
2023/03/10 06:49:10;;;;;;;100.88;94.72;;;13.60;99.90;;;;;;5269572;28;20044;-69
2023/03/10 06:51:41;;;;;;;95.85;90.20;;;13.70;99.90;;;;;;5270018;28;20031;-68
2023/03/10 06:54:12;;;;;;;101.60;95.25;;;13.90;99.90;;;;;;5270510;28;20058;-69
2023/03/10 06:56:43;;;;;;;99.50;93.82;;;13.80;99.90;;;;;;5270500;28;20063;-68
2023/03/10 06:59:14;;;;;;;96.65;90.93;;;14.10;99.90;;;;;;5268851;28;20060;-69
2023/03/10 07:01:45;;;;;;;87.03;81.88;;;14.10;99.90;;;;;;5269467;28;20024;-69
2023/03/10 07:04:16;;;;;;;91.20;85.72;;;14.20;99.90;;;;;;5268976;28;20024;-70
2023/03/10 07:06:46;;;;;;;93.38;87.85;;;14.30;99.90;;;;;;5251780;28;20027;-68
2023/03/10 07:09:17;;;;;;;97.75;91.85;;;14.50;99.90;;;;;;5266163;28;20048;-69
2023/03/10 07:11:48;;;;;;;98.15;92.10;;;14.50;99.90;;;;;;5270067;28;20034;-69
2023/03/10 07:14:19;;;;;;;98.70;92.68;;;14.60;99.90;;;;;;5269970;28;20083;-69
2023/03/10 07:16:50;;;;;;;102.07;95.57;;;14.60;99.90;;;;;;5270033;28;20078;-69
2023/03/10 07:19:21;;;;;;;90.68;85.28;;;14.70;99.90;;;;;;5269996;28;20428;-68
2023/03/10 07:21:52;;;;;;;90.10;84.57;;;14.80;99.90;;;;;;5269811;28;20532;-69
2023/03/10 07:24:22;;;;;;;92.75;87.45;;;14.90;99.90;;;;;;5268496;28;20090;-69
2023/03/10 07:26:53;;;;;;;91.47;86.18;;;15.00;99.90;;;;;;5269908;28;20016;-69
2023/03/10 07:29:24;;;;;;;86.15;80.90;;;15.00;99.90;;;;;;5269658;28;20532;-69
2023/03/10 07:31:55;;;;;;;88.20;82.88;;;15.00;99.90;;;;;;5269623;28;20020;-69
2023/03/10 07:34:26;;;;;;;92.40;86.90;;;15.00;99.90;;;;;;5269645;28;20032;-70
2023/03/10 07:36:57;;;;;;;71.78;67.43;;;15.00;99.90;;;;;;5269660;28;20119;-68
2023/03/10 07:39:28;;;;;;;69.38;65.28;;;15.30;99.90;;;;;;5269491;28;20036;-68
2023/03/10 07:41:59;;;;;;;80.38;75.28;;;15.40;99.90;;;;;;5268176;28;20027;-69
2023/03/10 07:44:30;;;;;;;73.97;69.60;;;15.40;99.90;;;;;;5269382;28;20020;-69
2023/03/10 07:47:01;;;;;;;69.95;65.50;;;15.60;99.90;;;;;;5269461;28;20016;-68
2023/03/10 07:49:32;;;;;;;81.00;76.18;;;15.70;99.90;;;;;;5268208;28;20032;-69
2023/03/10 07:52:03;;;;;;;82.80;77.93;;;15.70;99.90;;;;;;5268385;28;20028;-68
2023/03/10 07:54:34;;;;;;;73.88;69.57;;;15.90;99.90;;;;;;5269651;28;20024;-68
2023/03/10 07:57:05;;;;;;;70.65;66.45;;;15.90;99.90;;;;;;5269602;28;20428;-68
2023/03/10 07:59:36;;;;;;;71.05;66.95;;;16.10;99.90;;;;;;5269014;28;20035;-69
2023/03/10 08:02:11;;;;;;;72.03;67.95;;;16.20;99.90;;;;;;5269251;28;20418;-69
2023/03/10 08:04:42;;;;;;;76.63;71.95;;;16.30;99.90;;;;;;5269294;28;20110;-69
2023/03/10 08:07:13;;;;;;;63.75;60.10;;;16.50;99.90;;;;;;5269184;28;20547;-68
2023/03/10 08:09:53;;;;;;;66.70;62.97;;;16.50;99.90;;;;;;5268688;28;20063;-68
2023/03/10 08:12:24;;;;;;;82.70;78.00;;;16.50;99.90;;;;;;5268943;28;20021;-69
2023/03/10 08:14:55;;;;;;;72.35;67.97;;;16.40;99.90;;;;;;5268762;28;20440;-69
2023/03/10 08:17:29;;;;;;;59.10;55.50;;;16.50;99.90;;;;;;5268877;28;20077;-68
2023/03/10 08:20:00;;;;;;;64.13;60.28;;;16.50;99.90;;;;;;5268889;28;20023;-69
2023/03/10 08:22:31;;;;;;;64.95;61.05;;;16.50;99.90;;;;;;5268663;28;20020;-69
2023/03/10 08:25:02;;;;;;;72.18;68.05;;;16.70;99.90;;;;;;5268686;28;20188;-68
2023/03/10 08:27:33;;;;;;;58.30;54.85;;;16.70;99.90;;;;;;5268673;28;20050;-70
2023/03/10 08:30:05;;;;;;;64.95;60.88;;;16.80;99.90;;;;;;5268531;28;20431;-69
2023/03/10 08:32:36;;;;;;;64.30;60.30;;;16.60;99.90;;;;;;5268537;28;20020;-70
2023/03/10 08:35:07;;;;;;;72.45;68.15;;;16.60;99.90;;;;;;5268530;28;20023;-69
2023/03/10 08:37:38;;;;;;;62.38;58.83;;;16.60;99.90;;;;;;5268389;28;20043;-69
2023/03/10 08:40:11;;;;;;;68.43;64.20;;;16.80;99.90;;;;;;5268487;28;20463;-69
2023/03/10 08:42:42;;;;;;;63.78;60.05;;;17.00;99.90;;;;;;5268368;28;20020;-69
2023/03/10 08:45:13;;;;;;;74.18;70.07;;;17.00;99.90;;;;;;5266859;28;20024;-69
2023/03/10 08:47:44;;;;;;;73.95;69.43;;;17.00;99.90;;;;;;5265540;28;20024;-68
2023/03/10 08:50:15;;;;;;;78.22;73.85;;;16.90;99.90;;;;;;5247217;28;20575;-70
2023/03/10 08:52:46;;;;;;;110.75;104.43;;;16.90;99.90;;;;;;5267118;28;20027;-68
2023/03/10 08:55:17;;;;;;;67.55;63.25;;;17.00;99.90;;;;;;5268111;28;20028;-69
2023/03/10 08:57:48;;;;;;;63.78;59.95;;;17.10;99.90;;;;;;5268038;28;20020;-70
2023/03/10 09:00:19;;;;;;;72.05;67.32;;;17.40;99.90;;;;;;5267658;28;20024;-69
2023/03/10 09:02:50;;;;;;;65.13;61.25;;;17.40;99.90;;;;;;5262487;28;20043;-68
2023/03/10 09:05:21;;;;;;;63.80;60.08;;;17.70;99.90;;;;;;5268028;28;20024;-69
2023/03/10 09:07:52;;;;;;;64.20;60.40;;;17.70;99.90;;;;;;5267897;28;20617;-68
2023/03/10 09:10:26;;;;;;;74.82;70.22;;;18.00;99.90;;;;;;5268023;28;20051;-69
2023/03/10 09:12:56;;;;;;;78.95;74.40;;;18.00;99.90;;;;;;5268259;28;20440;-69
2023/03/10 09:15:27;;;;;;;90.20;84.75;;;18.30;99.90;;;;;;5267955;28;20032;-69
2023/03/10 09:18:00;;;;;;;74.72;70.40;;;18.00;99.90;;;;;;5266689;28;20035;-69
2023/03/10 09:20:30;;;;;;;68.20;64.25;;;18.00;99.90;;;;;;5267894;28;20103;-69
2023/03/10 09:23:02;;;;;;;75.70;71.03;;;18.30;99.90;;;;;;5267893;28;20107;-68
2023/03/10 09:25:33;;;;;;;76.82;72.30;;;18.00;99.90;;;;;;5267941;28;20055;-69
2023/03/10 09:28:04;;;;;;;68.80;64.50;;;17.90;99.90;;;;;;5267877;28;20470;-69
2023/03/10 09:30:36;;;;;;;66.18;62.40;;;18.00;99.90;;;;;;5266609;28;20078;-69
2023/03/10 09:33:13;;;;;;;52.28;48.97;;;18.60;99.90;;;;;;5267840;28;20027;-70
2023/03/10 09:35:44;;;;;;;49.75;46.55;;;18.90;99.90;;;;;;5267858;28;20052;-69
2023/03/10 09:38:16;;;;;;;64.47;60.72;;;19.00;99.90;;;;;;5267673;28;20058;-69
2023/03/10 09:40:56;;;;;;;44.70;42.03;;;18.60;99.90;;;;;;5267811;28;20024;-69
2023/03/10 09:43:29;;;;;;;40.00;37.47;;;18.80;99.90;;;;;;5267729;28;20023;-69
2023/03/10 09:46:25;;;;;;;37.15;34.83;;;19.00;99.90;;;;;;5267759;28;20035;-69
2023/03/10 09:49:22;;;;;;;35.15;32.95;;;19.20;99.90;;;;;;5267678;28;20040;-69
2023/03/10 09:51:52;;;;;;;36.08;33.80;;;19.50;99.90;;;;;;5267724;28;20020;-69
2023/03/10 09:54:41;;;;;;;40.55;37.83;;;19.90;99.90;;;;;;5266344;28;20357;-70
2023/03/10 09:57:17;;;;;;;42.87;40.10;;;19.50;99.90;;;;;;5267639;28;20414;-69
2023/03/10 09:59:50;;;;;;;57.20;53.80;;;19.80;99.90;;;;;;5267557;28;20111;-69
2023/03/10 10:02:29;;;;;;;42.15;39.72;;;19.30;99.90;;;;;;5246801;28;20031;-69
2023/03/10 10:05:05;;;;;;;37.65;35.33;;;19.90;99.90;;;;;;5246624;28;20460;-69
2023/03/10 10:07:45;;;;;;;41.13;38.45;;;19.80;99.90;;;;;;5246468;28;20067;-68
2023/03/10 10:10:28;;;;;;;43.25;40.42;;;19.70;99.90;;;;;;5246540;28;20049;-68
2023/03/10 10:13:10;;;;;;;39.15;36.75;;;19.80;99.90;;;;;;5249310;28;20032;-69
2023/03/10 10:15:47;;;;;;;40.35;37.85;;;19.90;99.90;;;;;;5250717;28;20466;-69
2023/03/10 10:18:30;;;;;;;42.88;40.30;;;19.40;99.90;;;;;;5250443;28;20025;-70
2023/03/10 10:21:10;;;;;;;42.75;39.83;;;19.40;99.90;;;;;;5250243;28;20107;-69
2023/03/10 10:23:46;;;;;;;126.03;117.65;;;19.70;99.90;;;;;;5250319;28;20074;-69
2023/03/10 10:26:20;;;;;;;41.50;38.75;;;19.20;99.90;;;;;;5250206;28;20028;-69
2023/03/10 10:28:58;;;;;;;34.03;31.52;;;19.00;99.90;;;;;;5249927;28;20028;-70
2023/03/10 10:31:30;;;;;;;60.13;56.00;;;19.40;99.90;;;;;;5250031;28;20066;-70
2023/03/10 10:34:21;;;;;;;20.20;18.70;;;18.60;99.90;;;;;;5250037;28;20021;-70
2023/03/10 10:36:54;;;;;;;31.02;28.83;;;19.20;99.90;;;;;;5250102;28;20024;-69
2023/03/10 10:39:39;;;;;;;27.98;25.98;;;19.20;99.90;;;;;;5249782;28;20024;-69
2023/03/10 10:42:24;;;;;;;30.00;27.73;;;19.20;99.90;;;;;;5249896;28;20037;-69
2023/03/10 10:45:01;;;;;;;33.60;31.17;;;19.40;99.90;;;;;;5249711;28;20028;-70
2023/03/10 10:47:45;;;;;;;34.35;31.85;;;19.10;99.90;;;;;;5249792;28;20161;-69
2023/03/10 10:50:28;;;;;;;40.30;37.53;;;19.80;99.90;;;;;;5249717;28;20040;-69
2023/03/10 10:53:16;;;;;;;32.55;30.13;;;19.50;99.90;;;;;;5249668;28;20028;-70
2023/03/10 10:55:59;;;;;;;179.85;166.50;;;19.20;99.90;;;;;;5249581;28;20431;-69
2023/03/10 10:58:33;;;;;;;31.67;29.38;;;18.80;99.90;;;;;;5249536;28;20394;-69
2023/03/10 11:01:11;;;;;;;39.72;36.65;;;19.30;99.90;;;;;;5249601;28;20029;-70
2023/03/10 11:03:49;;;;;;;23.35;21.80;;;19.10;99.90;;;;;;5249445;28;20017;-69
2023/03/10 11:06:28;;;;;;;40.20;37.70;;;19.30;99.90;;;;;;5249348;28;20032;-70
2023/03/10 11:09:03;;;;;;;35.13;32.70;;;19.50;99.90;;;;;;5248766;28;20067;-70
2023/03/10 11:11:53;;;;;;;33.60;31.10;;;19.00;99.90;;;;;;5249195;28;20121;-69
2023/03/10 11:14:31;;;;;;;59.88;56.00;;;19.50;99.90;;;;;;5249165;28;20024;-69
2023/03/10 11:17:23;;;;;;;36.78;34.47;;;19.60;99.90;;;;;;5249145;28;20024;-70
2023/03/10 11:19:54;;;;;;;30.98;28.88;;;19.40;99.90;;;;;;5249069;28;20512;-71
2023/03/10 11:22:28;;;;;;;38.95;36.35;;;19.50;99.90;;;;;;5248782;28;20077;-70
2023/03/10 11:25:33;;;;;;;37.22;34.65;;;19.60;99.90;;;;;;5248976;28;20068;-69
2023/03/10 11:28:22;;;;;;;36.38;33.85;;;19.70;99.90;;;;;;5248911;28;20028;-70
2023/03/10 11:31:12;;;;;;;40.80;38.17;;;19.50;99.90;;;;;;5249151;28;20388;-71
2023/03/10 11:33:59;;;;;;;35.78;33.13;;;19.60;99.90;;;;;;5254903;28;20063;-69
2023/03/10 11:36:58;;;;;;;31.13;28.85;;;20.10;99.90;;;;;;5269851;28;20131;-70
2023/03/10 11:39:48;;;;;;;43.15;40.53;;;20.10;99.90;;;;;;5268358;28;20596;-69
2023/03/10 11:42:19;;;;;;;63.35;59.28;;;19.50;99.90;;;;;;5269506;28;20039;-69
2023/03/10 11:44:58;;;;;;;54.15;50.47;;;19.60;99.90;;;;;;5269468;28;20460;-69
2023/03/10 11:48:10;;;;;;;31.30;29.02;;;20.20;99.90;;;;;;5269468;28;20032;-69
2023/03/10 11:50:49;;;;;;;49.63;46.40;;;20.40;99.90;;;;;;5184341;28;20034;-72
2023/03/10 11:53:42;;;;;;;119.10;112.32;;;19.80;99.90;;;;;;5184527;28;20030;-69
2023/03/10 11:56:16;;;;;;;32.42;30.05;;;19.70;99.90;;;;;;5232394;28;20161;-70
2023/03/10 11:59:08;;;;;;;31.27;29.25;;;20.40;99.90;;;;;;5248247;28;20525;-70
2023/03/10 12:01:52;;;;;;;39.05;36.50;;;20.80;99.90;;;;;;5248054;28;20028;-69
2023/03/10 12:04:36;;;;;;;37.45;35.05;;;20.30;99.90;;;;;;5248094;28;20369;-69
2023/03/10 12:07:26;;;;;;;35.97;33.60;;;20.30;99.90;;;;;;5248032;28;20028;-69
2023/03/10 12:09:59;;;;;;;61.75;57.90;;;20.10;99.90;;;;;;5248066;28;20040;-69
2023/03/10 12:12:35;;;;;;;85.95;80.35;;;20.30;99.90;;;;;;5247869;28;20031;-69
2023/03/10 12:15:34;;;;;;;38.95;36.58;;;19.90;99.90;;;;;;5248011;28;20032;-69
2023/03/10 12:18:06;;;;;;;;;;;20.00;99.90;;;;;;5248300;28;20095;-69
2023/03/10 12:20:37;;;;;;;58.88;55.38;;;20.20;99.90;;;;;;5247753;28;20568;-69
2023/03/10 12:23:10;;;;;;;41.28;38.83;;;19.60;99.90;;;;;;5247851;28;20104;-69
2023/03/10 12:25:41;;;;;;;33.78;31.65;;;19.70;99.90;;;;;;5247866;28;20154;-69
2023/03/10 12:28:15;;;;;;;32.58;30.20;;;20.00;99.90;;;;;;5247704;28;20047;-69
2023/03/10 12:30:55;;;;;;;67.65;63.15;;;19.90;99.90;;;;;;5247558;28;20067;-69
2023/03/10 12:36:33;;;;;;;49.53;45.92;;;19.40;99.90;;;;;;5247091;28;20434;-70
2023/03/10 12:39:23;;;;;;;38.40;36.00;;;19.90;99.90;;;;;;5247720;28;20083;-71
2023/03/10 12:41:55;;;;;;;49.78;46.67;;;20.00;99.90;;;;;;5247658;28;20083;-72
2023/03/10 12:44:47;;;;;;;42.08;39.47;;;20.40;99.90;;;;;;5247728;28;20024;-72
2023/03/10 12:47:39;;;;;;;49.40;46.33;;;20.50;99.90;;;;;;5247403;28;20384;-72
2023/03/10 12:50:32;;;;;;;46.63;43.95;;;20.60;99.90;;;;;;5247399;28;20111;-72
2023/03/10 12:53:20;;;;;;;39.17;36.53;;;20.80;99.90;;;;;;5247318;28;20051;-71
2023/03/10 12:56:13;;;;;;;55.25;51.45;;;20.90;99.90;;;;;;5247534;28;20337;-70
2023/03/10 12:59:20;;;;;;;67.93;63.75;;;20.60;99.90;;;;;;5261073;28;20042;-70